createdAt,value
2022-12-06T03:04:32.268Z,-0.60
2022-12-06T03:09:37.616Z,-0.60
2022-12-06T03:14:47.361Z,-0.50
2022-12-06T03:20:07.746Z,-0.50
2022-12-06T03:25:37.177Z,-0.50
2022-12-06T03:30:47.065Z,-0.50
2022-12-06T03:35:54.081Z,-0.60
2022-12-06T03:41:17.917Z,-0.60
2022-12-06T03:46:44.493Z,-0.60
2022-12-06T03:51:53.354Z,-0.60
2022-12-06T03:56:57.426Z,-0.50
2022-12-06T04:02:01.338Z,-0.60
2022-12-06T04:07:06.386Z,-0.60
2022-12-06T04:12:39.412Z,-0.60
2022-12-06T04:18:02.408Z,-0.70
2022-12-06T04:23:06.151Z,-0.70
2022-12-06T04:28:30.277Z,-0.70
2022-12-06T04:33:59.767Z,-0.70
2022-12-06T04:39:07.151Z,-0.70
2022-12-06T04:44:13.999Z,-0.70
2022-12-06T04:49:20.988Z,-0.70
2022-12-06T04:54:24.787Z,-0.70
2022-12-06T04:59:28.769Z,-0.70
2022-12-06T05:04:33.686Z,-0.70
2022-12-06T05:10:05.739Z,-0.70
2022-12-06T05:15:09.104Z,-0.70
2022-12-06T05:20:15.876Z,-0.80
2022-12-06T05:25:18.797Z,-0.80
2022-12-06T05:30:22.483Z,-0.70
2022-12-06T05:35:26.797Z,-0.70
2022-12-06T05:40:37.699Z,-0.70
2022-12-06T05:45:42.996Z,-0.50
2022-12-06T05:50:47.572Z,-0.50
2022-12-06T05:55:51.098Z,-0.30
2022-12-06T06:00:57.078Z,-0.30
2022-12-06T06:06:03.692Z,-0.30
2022-12-06T06:11:33.241Z,-0.20
2022-12-06T06:16:38.815Z,-0.30
2022-12-06T06:21:42.337Z,-0.20
2022-12-06T06:26:44.761Z,-0.20
2022-12-06T06:31:47.125Z,-0.10
2022-12-06T06:36:52.818Z,-0.30
2022-12-06T06:41:55.161Z,-0.30
2022-12-06T06:47:09.451Z,-0.40
2022-12-06T06:52:15.029Z,-0.40
2022-12-06T06:57:19.099Z,-0.50
2022-12-06T07:02:23.008Z,-0.40
2022-12-06T07:07:26.970Z,-0.40
2022-12-06T07:12:29.825Z,-0.40
2022-12-06T07:17:36.182Z,-0.50
2022-12-06T07:22:40.209Z,-0.50
2022-12-06T07:28:11.743Z,-0.50
2022-12-06T07:33:14.467Z,-0.50
2022-12-06T07:38:18.281Z,-0.50
2022-12-06T07:43:39.736Z,-0.40
2022-12-06T07:48:45.905Z,-0.30
2022-12-06T07:53:49.748Z,-0.40
2022-12-06T07:58:54.645Z,-0.40
2022-12-06T08:04:03.026Z,-0.50
2022-12-06T08:09:10.919Z,-0.50
2022-12-06T08:14:43.159Z,-0.50
2022-12-06T08:19:47.616Z,-0.50
2022-12-06T08:24:58.263Z,-0.60
2022-12-06T08:30:06.979Z,-0.60
2022-12-06T08:35:14.273Z,-0.50
2022-12-06T08:40:39.388Z,-0.50
2022-12-06T08:45:59.270Z,-0.40
2022-12-06T08:51:49.417Z,-0.40
2022-12-06T08:57:01.375Z,-0.30
2022-12-06T09:02:15.279Z,-0.20
2022-12-06T09:31:07.097Z,1.50
2022-12-06T09:50:09.015Z,3.20
2022-12-06T09:55:30.087Z,3.60
2022-12-06T10:01:00.038Z,4.10
2022-12-06T10:06:52.770Z,4.50
2022-12-06T10:32:39.789Z,5.60
2022-12-06T10:45:59.015Z,5.90
2022-12-06T11:37:44.222Z,6.20
2022-12-06T11:50:30.045Z,6.30
2022-12-06T11:56:11.372Z,6.60
2022-12-06T12:01:43.315Z,6.60
2022-12-06T12:14:10.487Z,6.40
2022-12-06T12:20:25.247Z,6.20
2022-12-06T12:43:27.300Z,6.20
2022-12-06T13:01:08.679Z,6.30
2022-12-06T20:42:53.100Z,0.90
2022-12-06T20:54:52.429Z,0.80
2022-12-06T21:06:29.761Z,0.70
2022-12-06T21:12:06.035Z,0.60
2022-12-06T21:17:28.837Z,0.60
2022-12-06T21:34:46.168Z,0.50
2022-12-06T21:40:22.099Z,0.50
2022-12-06T21:45:59.318Z,0.40
2022-12-06T21:57:40.668Z,0.30
2022-12-06T22:08:27.941Z,0.10
2022-12-06T22:19:24.925Z,0.40
2022-12-06T22:53:13.711Z,0.90
2022-12-06T22:58:40.407Z,0.70
2022-12-06T23:03:47.987Z,0.60
2022-12-06T23:09:09.030Z,0.60
2022-12-06T23:44:47.397Z,1.50
